Trenton, Iowa
Current Conditions -  °F | °C
As of 7:35 PM on Monday 20 Oct 2014 (Local Time) from KMPZ Reporting Station
Clear Clear  
Wind Chill: 57°   Ceiling: Unl
Heat Index: 57°   Visibility: 10mi
Dew Point: 42°   Wind: 3mph
Humidity: 57%   Direction: 290°WNW
Pressure: 30"   Gusts: NA
Location:  40.9915°N, 91.5765°W
Report Text: KMPZ 210035Z AUTO 29003KT 10SM CLR 14/06 A3000 RMK AO2 T01400056
Loading
Personal Weather Stations






























Interactive Weather Map
Tropical Storm Tracking
New forecast layout! Learn more

10-Day Weather Forecast

Advertisements
Track Severe Weather on mobile